TimeCDT,TemperatureF,Dew PointF,Humidity,Sea Level PressureIn,VisibilityMPH,Wind Direction,Wind SpeedMPH,Gust SpeedMPH,PrecipitationIn,Events,Conditions,WindDirDegrees,DateUTC
12:53 AM,37.0,28.0,70,29.99,10.0,Calm,Calm,-,N/A,,Clear,0,2013-03-15 05:53:00
1:53 AM,46.9,32.0,56,29.94,10.0,SSW,6.9,-,N/A,,Clear,200,2013-03-15 06:53:00
2:53 AM,50.0,33.1,52,29.91,10.0,South,8.1,-,N/A,,Clear,190,2013-03-15 07:53:00
3:53 AM,44.6,32.0,61,29.90,10.0,Calm,Calm,-,N/A,,Clear,0,2013-03-15 08:53:00
4:53 AM,39.9,30.0,68,29.85,10.0,Calm,Calm,-,N/A,,Clear,0,2013-03-15 09:53:00
5:53 AM,46.9,30.0,52,29.82,10.0,West,12.7,-,N/A,,Clear,260,2013-03-15 10:53:00
6:53 AM,46.9,30.9,54,29.82,10.0,SW,4.6,-,N/A,,Clear,220,2013-03-15 11:53:00
7:53 AM,45.0,30.9,58,29.84,10.0,West,4.6,-,N/A,,Clear,270,2013-03-15 12:53:00
8:53 AM,45.0,32.0,60,29.85,10.0,WSW,5.8,-,N/A,,Clear,240,2013-03-15 13:53:00
9:53 AM,57.9,32.0,37,29.82,10.0,Calm,Calm,-,N/A,,Clear,0,2013-03-15 14:53:00
10:53 AM,64.9,30.0,27,29.79,10.0,Calm,Calm,-,N/A,,Clear,0,2013-03-15 15:53:00
11:53 AM,66.9,32.0,27,29.79,10.0,WSW,3.5,-,N/A,,Clear,240,2013-03-15 16:53:00
12:53 PM,66.9,33.1,28,29.78,10.0,NNE,5.8,-,N/A,,Clear,30,2013-03-15 17:53:00
1:53 PM,70.0,30.9,24,29.73,10.0,Calm,Calm,-,N/A,,Clear,0,2013-03-15 18:53:00
2:53 PM,73.9,30.0,20,29.70,10.0,Calm,Calm,-,N/A,,Clear,0,2013-03-15 19:53:00
3:53 PM,75.0,28.0,18,29.68,10.0,WNW,10.4,-,N/A,,Clear,290,2013-03-15 20:53:00
4:53 PM,75.0,28.0,18,29.68,10.0,NNW,10.4,-,N/A,,Clear,340,2013-03-15 21:53:00
5:53 PM,72.0,34.0,25,29.69,10.0,NE,18.4,-,N/A,,Clear,40,2013-03-15 22:53:00
6:53 PM,66.9,36.0,32,29.73,10.0,NNE,13.8,-,N/A,,Clear,20,2013-03-15 23:53:00
7:53 PM,57.9,37.0,46,29.78,10.0,NNE,13.8,-,N/A,,Clear,20,2013-03-16 00:53:00
8:53 PM,53.1,37.0,55,29.83,10.0,NNE,15.0,-,N/A,,Clear,20,2013-03-16 01:53:00
9:53 PM,48.9,36.0,61,29.83,10.0,NNE,11.5,-,N/A,,Clear,20,2013-03-16 02:53:00
10:53 PM,46.0,35.1,66,29.84,10.0,North,13.8,-,N/A,,Clear,10,2013-03-16 03:53:00
11:53 PM,43.0,30.9,62,29.87,10.0,NNE,13.8,24.2,N/A,,Clear,20,2013-03-16 04:53:00